Time;durP1;ratioP1;P1;durP2;ratioP2;P2;SDS_P1;SDS_P2;PMS_P1;PMS_P2;Temp;Humidity;BMP_temperature;BMP_pressure;BME280_temperature;BME280_humidity;BME280_pressure;Samples;Min_cycle;Max_cycle;Signal;HPM_P1;HPM_P2
2022/03/14 00:02:01;;;;;;;66.87;37.77;;;3.30;76.90;;;;;;5051527;28;20458;-75
2022/03/14 00:04:29;;;;;;;59.50;38.83;;;3.30;76.60;;;;;;5051936;28;20454;-75
2022/03/14 00:06:57;;;;;;;57.20;39.23;;;3.30;76.60;;;;;;5051865;28;20528;-76
2022/03/14 00:09:24;;;;;;;63.13;38.20;;;3.20;77.40;;;;;;5051826;28;20511;-74
2022/03/14 00:11:54;;;;;;;58.60;34.70;;;3.10;78.40;;;;;;5051651;28;20434;-74
2022/03/14 00:14:25;;;;;;;56.43;32.83;;;3.10;78.50;;;;;;5051470;28;20553;-73
2022/03/14 00:16:52;;;;;;;51.73;28.13;;;2.90;79.30;;;;;;5051395;28;20485;-73
2022/03/14 00:19:20;;;;;;;50.67;30.10;;;3.00;78.80;;;;;;5051283;28;20568;-75
2022/03/14 00:21:49;;;;;;;53.23;29.83;;;3.00;78.90;;;;;;5051590;28;20485;-76
2022/03/14 00:24:17;;;;;;;44.73;30.00;;;2.90;79.40;;;;;;5050699;28;20522;-74
2022/03/14 00:26:44;;;;;;;38.07;25.33;;;2.90;79.70;;;;;;5051169;28;20461;-75
2022/03/14 00:29:11;;;;;;;39.57;24.43;;;2.80;80.10;;;;;;5051225;28;20454;-73
2022/03/14 00:31:38;;;;;;;32.83;23.43;;;2.80;79.50;;;;;;5051354;28;20461;-76
2022/03/14 00:34:06;;;;;;;38.73;24.43;;;2.90;79.00;;;;;;5050926;28;20474;-73
2022/03/14 00:36:33;;;;;;;41.33;25.23;;;2.80;79.80;;;;;;5051077;28;20460;-73
2022/03/14 00:39:00;;;;;;;47.97;26.27;;;2.70;80.70;;;;;;5050843;28;20486;-73
2022/03/14 00:41:28;;;;;;;33.70;24.57;;;2.80;81.30;;;;;;5050916;28;20450;-73
2022/03/14 00:43:55;;;;;;;32.07;21.13;;;2.80;80.60;;;;;;5051034;28;20470;-74
2022/03/14 00:46:23;;;;;;;28.67;21.10;;;2.90;79.70;;;;;;5050281;28;20532;-75
2022/03/14 00:48:50;;;;;;;34.10;22.23;;;2.90;79.00;;;;;;5051054;28;20926;-72
2022/03/14 00:51:17;;;;;;;35.90;24.33;;;2.70;80.60;;;;;;5050674;28;20889;-75
2022/03/14 00:53:44;;;;;;;31.20;19.10;;;2.60;82.30;;;;;;5050822;28;20549;-76
2022/03/14 00:56:12;;;;;;;35.30;20.47;;;2.30;83.20;;;;;;5050676;28;20480;-75
2022/03/14 00:58:41;;;;;;;40.00;25.50;;;2.00;86.40;;;;;;5050286;28;20552;-75
2022/03/14 01:01:08;;;;;;;51.73;29.00;;;1.90;89.40;;;;;;5050742;28;20454;-74
2022/03/14 01:03:35;;;;;;;50.63;31.70;;;2.00;90.80;;;;;;5050707;28;20468;-76
2022/03/14 01:06:02;;;;;;;58.87;36.10;;;2.10;90.40;;;;;;5050612;28;20477;-74
2022/03/14 01:08:29;;;;;;;63.50;35.63;;;2.20;90.20;;;;;;5050534;28;20774;-73
2022/03/14 01:10:56;;;;;;;60.63;37.77;;;1.90;90.50;;;;;;5050440;28;20457;-72
2022/03/14 01:13:23;;;;;;;60.17;37.67;;;1.60;91.40;;;;;;5050301;28;20946;-74
2022/03/14 01:15:52;;;;;;;62.20;35.70;;;1.70;92.10;;;;;;5050503;28;20843;-73
2022/03/14 01:18:19;;;;;;;54.93;33.20;;;1.70;92.40;;;;;;5050030;28;21008;-74
2022/03/14 01:20:47;;;;;;;55.40;36.13;;;1.90;92.00;;;;;;5050076;28;20532;-75
2022/03/14 01:23:14;;;;;;;51.73;33.07;;;1.90;92.10;;;;;;5050684;28;20774;-73
2022/03/14 01:25:42;;;;;;;56.70;34.13;;;1.80;92.20;;;;;;5049938;28;20588;-74
2022/03/14 01:28:10;;;;;;;45.17;31.37;;;2.00;91.40;;;;;;5050580;28;20453;-74
2022/03/14 01:30:39;;;;;;;52.57;32.80;;;2.10;90.70;;;;;;5050318;28;20458;-75
2022/03/14 01:33:07;;;;;;;60.43;34.10;;;2.10;90.60;;;;;;5049858;28;21005;-73
2022/03/14 01:35:35;;;;;;;56.23;35.80;;;2.10;90.50;;;;;;5049949;28;20473;-73
2022/03/14 01:38:03;;;;;;;56.43;34.13;;;2.30;89.10;;;;;;5049946;28;20497;-72
2022/03/14 01:40:30;;;;;;;56.23;33.37;;;2.20;88.80;;;;;;5050145;28;21002;-74
2022/03/14 01:42:58;;;;;;;53.67;34.23;;;2.20;89.30;;;;;;5049923;28;20477;-74
2022/03/14 01:45:25;;;;;;;51.87;30.83;;;2.30;89.40;;;;;;5049991;28;20446;-73
2022/03/14 01:47:53;;;;;;;54.40;32.63;;;2.40;88.80;;;;;;5049719;28;20450;-73
2022/03/14 01:50:22;;;;;;;48.27;29.47;;;2.40;87.30;;;;;;5049856;28;20906;-74
2022/03/14 01:52:49;;;;;;;39.50;28.27;;;2.40;85.20;;;;;;5049915;28;20911;-73
2022/03/14 01:55:16;;;;;;;51.30;29.90;;;2.30;86.60;;;;;;5050025;28;20446;-73
2022/03/14 01:57:44;;;;;;;51.63;28.83;;;2.20;88.20;;;;;;5049258;28;21103;-74
2022/03/14 02:00:13;;;;;;;46.43;29.93;;;2.30;88.80;;;;;;5049438;28;20497;-72
2022/03/14 02:02:40;;;;;;;46.17;32.00;;;2.30;89.10;;;;;;5049685;28;20454;-75
2022/03/14 02:05:08;;;;;;;55.27;32.00;;;2.40;89.40;;;;;;5049529;28;20461;-76
2022/03/14 02:07:36;;;;;;;53.10;32.40;;;2.20;90.40;;;;;;5050482;28;20577;-73
2022/03/14 02:10:04;;;;;;;48.27;31.80;;;2.00;91.20;;;;;;5052097;28;20457;-74
2022/03/14 02:12:31;;;;;;;51.37;32.93;;;2.00;91.90;;;;;;5053185;28;20537;-72
2022/03/14 02:14:58;;;;;;;48.43;31.67;;;2.00;91.90;;;;;;5055394;28;20449;-76
2022/03/14 02:17:25;;;;;;;47.83;30.90;;;2.00;91.90;;;;;;5053215;28;20819;-73
2022/03/14 02:19:52;;;;;;;49.77;31.40;;;2.20;91.60;;;;;;5050089;28;20458;-72
2022/03/14 02:22:21;;;;;;;53.07;32.30;;;2.20;92.10;;;;;;5049820;28;20468;-72
2022/03/14 02:24:49;;;;;;;53.70;32.50;;;2.00;92.50;;;;;;5049051;28;20492;-72
2022/03/14 02:27:18;;;;;;;48.20;30.90;;;1.90;93.50;;;;;;5049060;28;21030;-72
2022/03/14 02:29:46;;;;;;;46.87;29.93;;;2.00;93.50;;;;;;5049307;28;20916;-75
2022/03/14 02:32:13;;;;;;;52.93;31.97;;;2.00;93.50;;;;;;5049344;28;20460;-75
2022/03/14 02:34:41;;;;;;;48.60;32.53;;;2.00;93.80;;;;;;5049460;28;20576;-74
2022/03/14 02:37:09;;;;;;;50.87;30.93;;;2.00;94.30;;;;;;5049283;28;20478;-74
2022/03/14 02:39:38;;;;;;;44.07;32.70;;;2.10;93.50;;;;;;5048989;28;20524;-71
2022/03/14 02:42:07;;;;;;;48.33;31.67;;;2.00;94.00;;;;;;5049032;28;20524;-74
2022/03/14 02:44:34;;;;;;;45.63;31.17;;;2.00;94.50;;;;;;5049205;28;20979;-75
2022/03/14 02:47:04;;;;;;;46.47;29.17;;;2.00;94.40;;;;;;5049243;28;20584;-75
2022/03/14 02:49:32;;;;;;;47.87;29.07;;;2.20;93.50;;;;;;5049436;28;20523;-73
2022/03/14 02:52:00;;;;;;;45.87;28.20;;;2.20;93.10;;;;;;5049002;28;20958;-74
2022/03/14 02:54:27;;;;;;;40.37;25.33;;;2.20;93.20;;;;;;5048813;28;20926;-75
2022/03/14 02:56:57;;;;;;;40.10;25.67;;;2.00;93.50;;;;;;5048796;28;20474;-73
2022/03/14 02:59:24;;;;;;;40.27;27.40;;;1.50;95.50;;;;;;5049041;28;20489;-73
2022/03/14 03:01:51;;;;;;;50.03;27.40;;;1.50;96.70;;;;;;5049057;28;20496;-75
2022/03/14 03:04:18;;;;;;;38.73;26.50;;;1.60;96.10;;;;;;5049111;28;20469;-75
2022/03/14 03:06:46;;;;;;;41.70;26.17;;;1.90;94.20;;;;;;5048718;28;20474;-73
2022/03/14 03:09:13;;;;;;;35.63;23.00;;;2.00;94.10;;;;;;5050077;28;20894;-75
2022/03/14 03:11:41;;;;;;;39.13;24.23;;;1.60;94.90;;;;;;5052957;28;20457;-75
2022/03/14 03:14:09;;;;;;;39.67;23.93;;;1.60;94.70;;;;;;5052449;28;20985;-74
2022/03/14 03:16:37;;;;;;;34.00;23.77;;;1.90;93.20;;;;;;5052660;28;20516;-74
2022/03/14 03:19:06;;;;;;;37.20;24.43;;;2.10;92.40;;;;;;5052607;28;20497;-73
2022/03/14 03:21:34;;;;;;;34.93;22.07;;;2.00;92.90;;;;;;5052481;28;20458;-73
2022/03/14 03:24:02;;;;;;;36.37;20.50;;;2.10;92.60;;;;;;5052151;28;20462;-76
2022/03/14 03:26:29;;;;;;;31.67;21.93;;;2.20;91.80;;;;;;5052462;28;20482;-75
2022/03/14 03:28:56;;;;;;;30.67;22.30;;;2.20;91.20;;;;;;5052690;28;20446;-75
2022/03/14 03:31:28;;;;;;;33.40;21.77;;;2.10;91.40;;;;;;5052565;28;20453;-73
2022/03/14 03:33:55;;;;;;;37.07;22.40;;;2.00;91.70;;;;;;5052120;28;20457;-74
2022/03/14 03:36:22;;;;;;;31.83;20.13;;;1.90;92.80;;;;;;5052330;28;20811;-73
2022/03/14 03:38:49;;;;;;;31.20;19.50;;;2.00;92.50;;;;;;5052155;28;20489;-73
2022/03/14 03:41:17;;;;;;;34.50;21.70;;;2.00;92.20;;;;;;5052278;28;20454;-74
2022/03/14 03:43:44;;;;;;;33.43;20.40;;;1.80;92.70;;;;;;5052397;28;20946;-72
2022/03/14 03:46:11;;;;;;;29.53;20.20;;;1.70;93.00;;;;;;5052092;28;20835;-74
2022/03/14 03:48:40;;;;;;;34.30;23.20;;;1.70;92.80;;;;;;5052010;28;20458;-74
2022/03/14 03:51:07;;;;;;;39.03;25.40;;;1.60;93.20;;;;;;5052091;28;20465;-72
2022/03/14 03:53:34;;;;;;;39.43;25.67;;;1.70;92.90;;;;;;5051976;28;20477;-75
2022/03/14 03:56:01;;;;;;;39.63;25.60;;;1.60;92.90;;;;;;5051969;28;20470;-75
2022/03/14 03:58:28;;;;;;;35.97;26.20;;;1.60;93.20;;;;;;5051867;28;20997;-74
2022/03/14 04:00:55;;;;;;;37.23;25.73;;;1.50;93.80;;;;;;5051567;28;20473;-74
2022/03/14 04:03:22;;;;;;;32.97;21.60;;;1.40;94.30;;;;;;5051565;28;20462;-74
2022/03/14 04:05:51;;;;;;;31.57;22.17;;;1.40;93.30;;;;;;5051567;28;20473;-75
2022/03/14 04:08:19;;;;;;;30.03;21.23;;;1.40;92.40;;;;;;5051697;28;20922;-76
2022/03/14 04:10:47;;;;;;;36.30;23.10;;;1.40;92.80;;;;;;5051485;28;20465;-74
2022/03/14 04:13:14;;;;;;;39.30;23.13;;;1.40;92.90;;;;;;5051780;28;20488;-74
2022/03/14 04:15:46;;;;;;;33.67;20.93;;;1.60;92.40;;;;;;5051722;28;20505;-73
2022/03/14 04:18:14;;;;;;;26.30;19.33;;;1.70;92.30;;;;;;5051397;28;20489;-73
2022/03/14 04:20:41;;;;;;;28.17;19.00;;;1.70;92.00;;;;;;5050365;28;20560;-75
2022/03/14 04:23:09;;;;;;;33.70;20.33;;;1.80;91.70;;;;;;5051356;28;20966;-73
2022/03/14 04:25:36;;;;;;;26.43;19.87;;;1.80;91.40;;;;;;5050627;28;20506;-73
2022/03/14 04:28:03;;;;;;;24.50;16.80;;;1.60;91.70;;;;;;5050994;28;20515;-73
2022/03/14 04:30:30;;;;;;;28.10;19.77;;;1.60;91.60;;;;;;5051240;28;20813;-74
2022/03/14 04:32:57;;;;;;;26.97;18.20;;;1.60;91.20;;;;;;5051157;28;20442;-73
2022/03/14 04:35:25;;;;;;;30.60;19.00;;;1.50;92.00;;;;;;5051004;28;20489;-75
2022/03/14 04:37:52;;;;;;;27.27;17.20;;;1.50;92.70;;;;;;5051306;28;20449;-75
2022/03/14 04:40:21;;;;;;;23.17;14.80;;;1.40;92.80;;;;;;5051173;28;20446;-76
2022/03/14 04:42:48;;;;;;;20.97;13.90;;;1.50;91.70;;;;;;5051089;28;20450;-70
2022/03/14 04:45:15;;;;;;;23.43;17.30;;;1.60;90.10;;;;;;5050887;28;20461;-71
2022/03/14 04:47:43;;;;;;;30.20;19.53;;;1.70;90.70;;;;;;5050877;28;20469;-71
2022/03/14 04:50:11;;;;;;;32.17;20.40;;;1.70;91.30;;;;;;5050904;28;20450;-72
2022/03/14 04:52:38;;;;;;;35.33;22.70;;;1.70;91.80;;;;;;5050949;28;20453;-71
2022/03/14 04:55:06;;;;;;;30.43;19.67;;;1.60;92.60;;;;;;5050766;28;20458;-70
2022/03/14 04:57:34;;;;;;;38.23;23.70;;;1.60;92.80;;;;;;5051073;28;20859;-72
2022/03/14 05:00:01;;;;;;;42.80;24.07;;;1.50;93.50;;;;;;5050731;28;20550;-70
2022/03/14 05:02:29;;;;;;;37.90;25.17;;;1.40;94.90;;;;;;5051155;28;20457;-70
2022/03/14 05:04:56;;;;;;;45.93;26.17;;;1.30;96.80;;;;;;5050696;28;20458;-71
2022/03/14 05:07:23;;;;;;;38.37;25.80;;;1.30;96.70;;;;;;5050562;28;20469;-71
2022/03/14 05:09:50;;;;;;;42.07;25.63;;;1.30;96.70;;;;;;5050398;28;20446;-72
2022/03/14 05:12:17;;;;;;;39.60;26.33;;;1.40;96.20;;;;;;5050109;28;20454;-73
2022/03/14 05:14:46;;;;;;;35.13;24.80;;;1.20;97.00;;;;;;5050260;28;20458;-73
2022/03/14 05:17:13;;;;;;;38.93;24.50;;;0.90;98.50;;;;;;5050224;28;20477;-74
2022/03/14 05:19:40;;;;;;;40.17;25.13;;;0.90;98.20;;;;;;5050167;28;20490;-70
2022/03/14 05:22:07;;;;;;;38.70;24.80;;;0.90;98.40;;;;;;5049801;28;20454;-70
2022/03/14 05:24:34;;;;;;;38.13;24.30;;;0.80;98.50;;;;;;5049825;28;20505;-71
2022/03/14 05:27:01;;;;;;;37.40;25.33;;;1.00;98.40;;;;;;5050000;28;20973;-74
2022/03/14 05:29:28;;;;;;;41.77;23.50;;;0.80;98.80;;;;;;5050190;28;20458;-74
2022/03/14 05:31:57;;;;;;;38.13;25.43;;;1.10;97.70;;;;;;5049776;28;20446;-75
2022/03/14 05:34:25;;;;;;;38.60;23.73;;;1.10;97.10;;;;;;5050247;28;20485;-73
2022/03/14 05:36:52;;;;;;;39.00;21.30;;;1.00;97.50;;;;;;5049646;28;20501;-75
2022/03/14 05:39:19;;;;;;;34.17;21.90;;;1.00;98.20;;;;;;5049806;28;20486;-75
2022/03/14 05:41:46;;;;;;;36.27;23.90;;;1.10;98.30;;;;;;5050156;28;20454;-76
2022/03/14 05:44:13;;;;;;;38.43;23.53;;;1.40;97.70;;;;;;5049858;28;20457;-75
2022/03/14 05:46:40;;;;;;;39.67;22.50;;;1.40;97.70;;;;;;5049202;28;20480;-76
2022/03/14 05:49:08;;;;;;;33.90;23.40;;;1.70;96.20;;;;;;5049783;28;20870;-72
2022/03/14 05:51:37;;;;;;;32.63;23.43;;;1.50;95.70;;;;;;5049410;28;20461;-71
2022/03/14 05:54:04;;;;;;;41.40;27.23;;;1.10;97.40;;;;;;5049710;28;20485;-71
2022/03/14 05:56:32;;;;;;;36.40;24.20;;;1.20;98.10;;;;;;5049563;28;20477;-71
2022/03/14 05:59:00;;;;;;;42.37;23.70;;;1.30;97.30;;;;;;5049431;28;20486;-72
2022/03/14 06:01:27;;;;;;;32.30;22.73;;;1.50;97.20;;;;;;5049689;28;20513;-76
2022/03/14 06:03:54;;;;;;;34.60;22.83;;;1.20;96.10;;;;;;5049351;28;20458;-72
2022/03/14 06:06:22;;;;;;;39.10;23.30;;;1.60;95.00;;;;;;5049065;28;20481;-72
2022/03/14 06:08:50;;;;;;;34.43;23.20;;;1.90;94.50;;;;;;5049065;28;20484;-75
2022/03/14 06:11:18;;;;;;;38.13;23.30;;;2.00;94.40;;;;;;5049604;28;20787;-77
2022/03/14 06:13:45;;;;;;;34.30;23.63;;;2.20;94.20;;;;;;5049341;28;20454;-73
2022/03/14 06:16:13;;;;;;;32.30;23.37;;;2.40;93.70;;;;;;5044872;28;20480;-66
2022/03/14 06:18:40;;;;;;;32.80;22.53;;;2.70;92.80;;;;;;5043268;28;21073;-71
2022/03/14 06:21:07;;;;;;;27.23;21.10;;;2.90;91.80;;;;;;5029375;28;20478;-73
2022/03/14 06:23:36;;;;;;;36.40;21.53;;;3.10;91.20;;;;;;5045288;28;20829;-71
2022/03/14 06:26:04;;;;;;;34.37;21.93;;;3.20;91.10;;;;;;5048657;28;20864;-69
2022/03/14 06:28:31;;;;;;;30.70;22.70;;;3.20;90.60;;;;;;5048920;28;20465;-70
2022/03/14 06:30:58;;;;;;;32.23;23.03;;;3.60;90.70;;;;;;5049014;28;20465;-69
2022/03/14 06:33:25;;;;;;;42.70;24.47;;;3.40;90.90;;;;;;5048781;28;20946;-71
2022/03/14 06:35:52;;;;;;;33.00;22.63;;;3.30;90.20;;;;;;5048836;28;20477;-68
2022/03/14 06:38:19;;;;;;;32.30;22.70;;;3.20;91.10;;;;;;5048712;28;20465;-71
2022/03/14 06:40:48;;;;;;;33.10;22.50;;;3.60;89.60;;;;;;5048186;28;20489;-71
2022/03/14 06:43:17;;;;;;;33.20;22.23;;;3.90;88.00;;;;;;5048286;28;20930;-73
2022/03/14 06:45:45;;;;;;;35.57;23.93;;;4.00;88.80;;;;;;5052088;28;20823;-69
2022/03/14 06:48:13;;;;;;;32.37;24.40;;;4.20;89.20;;;;;;5052720;28;20460;-74
2022/03/14 06:50:40;;;;;;;36.53;24.67;;;4.40;88.00;;;;;;5052330;28;20878;-73
2022/03/14 06:53:08;;;;;;;34.90;23.20;;;4.50;86.20;;;;;;5052727;28;20453;-73
2022/03/14 06:55:35;;;;;;;33.73;24.70;;;4.70;85.10;;;;;;5052830;28;20465;-75
2022/03/14 06:58:04;;;;;;;40.20;25.77;;;4.80;84.20;;;;;;5052756;28;20476;-73
2022/03/14 07:00:31;;;;;;;39.53;25.17;;;4.60;83.00;;;;;;5051888;28;20500;-73
2022/03/14 07:02:58;;;;;;;31.93;24.27;;;4.60;80.50;;;;;;5052107;28;20453;-72
2022/03/14 07:05:26;;;;;;;41.43;24.47;;;4.80;80.20;;;;;;5052236;28;20922;-72
2022/03/14 07:07:53;;;;;;;34.87;25.03;;;5.10;78.70;;;;;;5052462;28;20564;-73
2022/03/14 07:10:21;;;;;;;31.57;23.23;;;5.10;78.00;;;;;;5052350;28;20450;-74
2022/03/14 07:12:50;;;;;;;42.30;24.33;;;5.30;77.00;;;;;;5052140;28;20811;-77
2022/03/14 07:15:20;;;;;;;34.10;23.37;;;5.40;76.10;;;;;;5052213;28;20547;-78
2022/03/14 07:17:48;;;;;;;36.37;25.37;;;5.50;76.00;;;;;;5033592;28;20911;-77
2022/03/14 07:20:17;;;;;;;33.33;24.07;;;5.50;75.00;;;;;;5032358;28;20483;-76
2022/03/14 07:22:52;;;;;;;44.13;24.50;;;5.50;75.60;;;;;;5032298;28;20498;-75
2022/03/14 07:25:20;;;;;;;32.77;24.43;;;5.40;75.10;;;;;;5031667;28;20994;-74
2022/03/14 07:27:47;;;;;;;31.53;22.80;;;5.60;74.00;;;;;;5031808;28;20462;-72
2022/03/14 07:30:15;;;;;;;34.10;23.43;;;5.70;73.40;;;;;;5031956;28;20469;-73
2022/03/14 07:32:43;;;;;;;37.00;25.23;;;5.80;74.10;;;;;;5032127;28;20466;-75
2022/03/14 07:35:11;;;;;;;34.03;22.20;;;6.10;72.60;;;;;;5031918;28;20451;-74
2022/03/14 07:37:39;;;;;;;31.60;21.70;;;6.10;69.70;;;;;;5032260;28;20454;-75
2022/03/14 07:40:07;;;;;;;38.30;23.80;;;6.40;69.40;;;;;;5031888;28;21049;-76
2022/03/14 07:42:40;;;;;;;34.97;23.00;;;6.60;67.60;;;;;;5032345;28;20443;-76
2022/03/14 07:45:08;;;;;;;32.10;23.40;;;6.70;66.60;;;;;;5033984;28;20490;-74
2022/03/14 07:47:35;;;;;;;34.83;23.80;;;6.90;66.20;;;;;;5033030;28;20470;-66
2022/03/14 07:50:06;;;;;;;31.27;22.10;;;7.10;66.50;;;;;;5032283;28;20446;-68
2022/03/14 07:52:33;;;;;;;34.20;22.53;;;7.20;64.10;;;;;;5031694;28;20483;-68
2022/03/14 07:55:00;;;;;;;31.57;22.30;;;7.40;62.60;;;;;;5031645;28;20455;-67
2022/03/14 07:57:27;;;;;;;29.77;19.53;;;7.60;63.40;;;;;;5031381;28;20478;-68
2022/03/14 07:59:54;;;;;;;32.50;21.27;;;7.80;62.80;;;;;;5031236;28;20526;-68
2022/03/14 08:02:21;;;;;;;33.53;21.67;;;7.90;61.30;;;;;;5031607;28;20496;-67
2022/03/14 08:04:48;;;;;;;28.37;22.03;;;8.20;59.50;;;;;;5031481;28;20541;-67
2022/03/14 08:07:17;;;;;;;30.03;22.90;;;8.30;59.00;;;;;;5031266;28;21006;-69
2022/03/14 08:09:44;;;;;;;31.37;21.83;;;8.40;59.00;;;;;;5030802;28;20451;-68
2022/03/14 08:12:12;;;;;;;34.53;20.77;;;8.50;58.90;;;;;;5031044;28;20458;-69
2022/03/14 08:14:39;;;;;;;51.53;24.73;;;8.60;58.50;;;;;;5031308;28;20486;-68
2022/03/14 08:17:06;;;;;;;35.73;20.80;;;8.80;57.80;;;;;;5034329;28;20481;-68
2022/03/14 08:19:34;;;;;;;26.37;19.43;;;9.00;57.60;;;;;;5030326;28;21030;-67
2022/03/14 08:22:02;;;;;;;25.53;20.03;;;9.20;56.10;;;;;;5031191;28;20451;-68
2022/03/14 08:24:30;;;;;;;31.77;20.13;;;9.40;56.20;;;;;;5030976;28;20490;-68
2022/03/14 08:27:01;;;;;;;24.30;17.97;;;9.50;53.80;;;;;;5031149;28;20475;-69
2022/03/14 08:29:28;;;;;;;29.90;18.50;;;9.40;53.70;;;;;;5030981;28;20771;-69
2022/03/14 08:31:55;;;;;;;29.30;21.83;;;9.20;53.50;;;;;;5030818;28;20462;-68
2022/03/14 08:34:23;;;;;;;26.87;18.37;;;9.20;53.80;;;;;;5030568;28;20958;-68
2022/03/14 08:36:50;;;;;;;33.27;19.87;;;9.20;54.00;;;;;;5030860;28;20568;-68
2022/03/14 08:39:17;;;;;;;27.80;19.07;;;9.20;54.10;;;;;;5030788;28;20620;-69
2022/03/14 08:41:45;;;;;;;31.67;20.47;;;9.30;53.60;;;;;;5030766;28;20455;-68
2022/03/14 08:44:13;;;;;;;31.10;19.10;;;9.40;53.10;;;;;;5030628;28;20461;-68
2022/03/14 08:46:40;;;;;;;27.63;19.53;;;9.20;52.10;;;;;;5028839;28;20510;-68
2022/03/14 08:49:07;;;;;;;24.13;18.67;;;9.00;52.60;;;;;;5027983;28;20459;-68
2022/03/14 08:51:34;;;;;;;29.00;19.90;;;8.70;52.80;;;;;;5028498;28;20443;-68
2022/03/14 08:54:01;;;;;;;24.70;18.67;;;9.00;53.30;;;;;;5030878;28;20605;-68
2022/03/14 08:56:28;;;;;;;22.70;16.30;;;9.10;53.30;;;;;;5030801;28;20517;-68
2022/03/14 08:58:57;;;;;;;25.37;14.40;;;9.40;53.10;;;;;;5031094;28;20458;-68
2022/03/14 09:01:24;;;;;;;20.27;14.40;;;9.30;50.80;;;;;;5030839;28;20487;-68
2022/03/14 09:03:51;;;;;;;37.73;15.60;;;9.40;50.60;;;;;;5030320;28;20935;-69
2022/03/14 09:06:18;;;;;;;20.83;14.70;;;9.30;51.70;;;;;;5029828;28;20474;-72
2022/03/14 09:08:46;;;;;;;23.47;15.70;;;9.50;52.40;;;;;;5030237;28;20455;-70
2022/03/14 09:11:13;;;;;;;27.10;17.63;;;9.90;52.30;;;;;;5029694;28;20463;-74
2022/03/14 09:13:40;;;;;;;26.20;17.23;;;10.20;51.70;;;;;;5030104;28;20459;-68
2022/03/14 09:16:09;;;;;;;19.47;13.47;;;10.30;51.50;;;;;;5030108;28;20955;-70
2022/03/14 09:18:36;;;;;;;16.03;12.53;;;10.40;49.60;;;;;;5029462;28;20462;-69
2022/03/14 09:21:04;;;;;;;15.33;11.53;;;10.40;48.70;;;;;;5030046;28;20494;-68
2022/03/14 09:23:31;;;;;;;15.30;10.80;;;10.50;48.00;;;;;;5030229;28;21240;-69
2022/03/14 09:25:59;;;;;;;18.13;12.30;;;10.70;46.20;;;;;;5029464;28;20605;-68
2022/03/14 09:28:26;;;;;;;17.23;10.60;;;10.80;47.40;;;;;;5029885;28;20566;-69
2022/03/14 09:30:53;;;;;;;16.90;10.63;;;10.90;47.50;;;;;;5029979;28;20936;-69
2022/03/14 09:33:22;;;;;;;21.67;11.37;;;11.10;46.50;;;;;;5029795;28;20541;-67
2022/03/14 09:35:50;;;;;;;12.50;8.90;;;11.30;47.10;;;;;;5029510;28;20554;-69
2022/03/14 09:38:18;;;;;;;12.93;8.13;;;11.50;45.90;;;;;;5029772;28;20459;-68
2022/03/14 09:40:46;;;;;;;13.40;7.53;;;11.60;44.10;;;;;;5029697;28;20490;-70
2022/03/14 09:43:16;;;;;;;11.67;7.03;;;11.20;42.80;;;;;;5029727;28;20638;-70
2022/03/14 09:45:47;;;;;;;10.30;6.50;;;11.40;42.80;;;;;;5031098;28;20489;-69
2022/03/14 09:48:15;;;;;;;16.00;8.13;;;11.30;43.10;;;;;;5039102;28;20977;-69
2022/03/14 09:50:45;;;;;;;13.30;7.50;;;11.60;44.00;;;;;;5029682;28;20782;-68
2022/03/14 09:53:14;;;;;;;11.07;7.27;;;11.70;43.20;;;;;;5046663;28;20474;-71
2022/03/14 09:55:44;;;;;;;13.83;7.10;;;11.90;41.70;;;;;;5046588;28;20475;-74
2022/03/14 09:58:13;;;;;;;16.13;7.80;;;11.90;41.40;;;;;;5032920;28;20528;-70
2022/03/14 10:00:42;;;;;;;9.00;7.00;;;12.10;42.80;;;;;;5028890;28;20486;-70
2022/03/14 10:03:10;;;;;;;11.27;6.30;;;12.50;41.90;;;;;;5029096;28;20451;-70
2022/03/14 10:05:38;;;;;;;10.37;6.17;;;12.80;41.80;;;;;;5029347;28;21933;-70
2022/03/14 10:08:08;;;;;;;9.67;6.03;;;13.00;41.80;;;;;;5029216;28;20532;-68
2022/03/14 10:10:37;;;;;;;8.20;5.63;;;13.10;41.30;;;;;;5028942;28;20975;-70
2022/03/14 10:13:06;;;;;;;11.27;6.10;;;13.30;40.90;;;;;;5029419;28;20450;-68
2022/03/14 10:15:34;;;;;;;8.07;5.53;;;13.50;41.00;;;;;;5029395;28;20462;-68
2022/03/14 10:18:10;;;;;;;17.27;10.20;;;13.80;39.20;;;;;;5028584;28;20486;-72
2022/03/14 10:20:37;;;;;;;9.50;6.20;;;13.90;39.10;;;;;;5028717;28;20569;-70
2022/03/14 10:23:07;;;;;;;11.80;7.87;;;14.00;38.60;;;;;;5028656;28;20453;-70
2022/03/14 10:25:41;;;;;;;12.00;6.43;;;14.00;38.90;;;;;;5028587;28;20502;-68
2022/03/14 10:28:09;;;;;;;11.33;6.30;;;14.10;38.70;;;;;;5029075;28;20531;-70
2022/03/14 10:30:37;;;;;;;9.33;6.30;;;14.10;39.00;;;;;;5029022;28;20466;-69
2022/03/14 10:33:14;;;;;;;7.37;5.47;;;13.50;36.90;;;;;;5029059;28;20458;-69
2022/03/14 10:35:42;;;;;;;9.27;6.00;;;13.10;37.80;;;;;;5029068;28;20459;-75
2022/03/14 10:38:12;;;;;;;8.57;5.60;;;13.10;38.40;;;;;;5027418;28;20450;-76
2022/03/14 10:40:41;;;;;;;10.60;6.57;;;13.40;38.70;;;;;;5029542;28;20894;-76
2022/03/14 10:43:09;;;;;;;10.43;6.00;;;13.70;38.60;;;;;;5029243;28;20896;-72
2022/03/14 10:45:38;;;;;;;10.80;6.60;;;13.50;37.60;;;;;;5028724;28;20878;-74
2022/03/14 10:48:06;;;;;;;9.10;5.80;;;13.50;38.30;;;;;;5029060;28;20478;-76
2022/03/14 10:50:35;;;;;;;8.30;5.87;;;13.50;39.00;;;;;;5028896;28;20967;-75
2022/03/14 10:53:05;;;;;;;11.20;6.23;;;13.70;39.30;;;;;;5028675;28;20466;-73
2022/03/14 10:55:38;;;;;;;10.17;6.67;;;14.00;39.90;;;;;;5028789;28;20501;-75
2022/03/14 10:58:13;;;;;;;9.20;6.10;;;14.20;38.10;;;;;;5028981;28;20450;-77
2022/03/14 11:00:51;;;;;;;10.37;6.20;;;13.40;36.80;;;;;;5028790;28;21007;-76
2022/03/14 11:03:27;;;;;;;8.07;6.30;;;13.20;37.10;;;;;;5028858;28;20458;-75
2022/03/14 11:05:57;;;;;;;10.47;6.40;;;13.20;38.40;;;;;;5011335;28;20890;-75
2022/03/14 11:08:33;;;;;;;10.93;6.00;;;13.30;38.80;;;;;;5028954;28;20811;-71
2022/03/14 11:11:04;;;;;;;10.93;7.23;;;13.60;38.20;;;;;;5028879;28;20439;-74
2022/03/14 11:13:31;;;;;;;9.60;6.60;;;13.90;38.30;;;;;;5028808;28;20458;-74
2022/03/14 11:15:58;;;;;;;11.40;5.97;;;13.90;37.80;;;;;;5028790;28;20475;-73
2022/03/14 11:18:26;;;;;;;8.23;5.60;;;13.80;37.50;;;;;;5029177;28;20939;-77
2022/03/14 11:20:54;;;;;;;11.33;6.17;;;13.60;37.30;;;;;;5028765;28;20497;-78
2022/03/14 11:23:23;;;;;;;13.50;6.70;;;13.50;38.70;;;;;;5028783;28;20463;-74
2022/03/14 11:25:51;;;;;;;7.57;5.43;;;13.70;38.10;;;;;;5028542;28;20513;-73
2022/03/14 11:28:22;;;;;;;8.10;5.90;;;13.90;38.90;;;;;;5028607;28;20820;-72
2022/03/14 11:30:57;;;;;;;10.20;6.27;;;14.00;37.50;;;;;;5030651;28;20472;-69
2022/03/14 11:33:25;;;;;;;9.70;6.60;;;14.00;38.10;;;;;;5031989;28;20870;-69
2022/03/14 11:35:52;;;;;;;10.40;7.00;;;14.40;38.90;;;;;;5031932;28;20589;-75
2022/03/14 11:38:20;;;;;;;8.57;6.40;;;14.60;38.00;;;;;;5031988;28;20446;-74
2022/03/14 11:40:47;;;;;;;8.90;6.10;;;14.90;37.90;;;;;;5032011;28;20482;-75
2022/03/14 11:43:14;;;;;;;8.37;5.90;;;15.30;37.50;;;;;;5032108;28;20501;-74
2022/03/14 11:45:43;;;;;;;8.87;6.70;;;15.40;37.50;;;;;;5031858;28;20455;-75
2022/03/14 11:48:11;;;;;;;9.87;6.60;;;15.60;37.40;;;;;;5031705;28;20455;-72
2022/03/14 11:50:46;;;;;;;12.80;7.70;;;15.30;38.10;;;;;;5031809;28;20463;-73
2022/03/14 11:53:24;;;;;;;10.77;7.77;;;15.50;36.70;;;;;;5031528;28;20461;-73
2022/03/14 11:55:55;;;;;;;10.90;7.87;;;15.80;37.20;;;;;;5031656;28;20479;-72
2022/03/14 11:58:37;;;;;;;8.77;6.80;;;16.20;38.60;;;;;;5031614;28;20461;-73
2022/03/14 12:01:20;;;;;;;11.50;8.63;;;16.50;36.20;;;;;;5031467;28;20486;-76
2022/03/14 12:03:49;;;;;;;10.90;8.07;;;16.30;35.90;;;;;;5031073;28;20544;-75
2022/03/14 12:06:17;;;;;;;9.73;8.13;;;16.30;37.10;;;;;;5031620;28;20475;-74
2022/03/14 12:08:54;;;;;;;10.33;7.90;;;16.30;35.30;;;;;;5031838;28;20554;-74
2022/03/14 12:11:49;;;;;;;9.77;7.37;;;16.20;36.90;;;;;;5031585;28;20527;-71
2022/03/14 12:14:42;;;;;;;10.80;7.10;;;16.50;37.10;;;;;;4984674;28;20471;-72
2022/03/14 12:17:23;;;;;;;12.80;8.40;;;16.70;36.60;;;;;;5031163;28;20558;-74
2022/03/14 12:19:52;;;;;;;9.60;7.30;;;17.00;36.80;;;;;;5031123;28;20573;-73
2022/03/14 12:22:40;;;;;;;18.97;8.40;;;17.20;35.60;;;;;;5031181;28;20525;-71
2022/03/14 12:25:09;;;;;;;10.90;7.33;;;16.80;34.30;;;;;;5030684;28;20532;-72
2022/03/14 12:27:37;;;;;;;9.17;7.40;;;16.80;35.00;;;;;;5030921;28;20838;-71
2022/03/14 12:30:07;;;;;;;10.30;7.10;;;16.90;35.60;;;;;;5030986;28;20457;-73
2022/03/14 12:32:40;;;;;;;10.50;6.50;;;17.20;35.20;;;;;;5031022;28;20454;-72
2022/03/14 12:35:10;;;;;;;10.87;7.50;;;17.20;35.20;;;;;;5031049;28;20458;-73
2022/03/14 12:37:50;;;;;;;9.67;7.27;;;17.00;36.40;;;;;;5030776;28;20481;-71
2022/03/14 12:40:45;;;;;;;10.73;7.37;;;17.30;36.00;;;;;;5030728;28;20577;-71
2022/03/14 12:43:24;;;;;;;11.53;7.20;;;17.50;36.50;;;;;;5022810;28;20970;-73
2022/03/14 12:45:53;;;;;;;10.07;7.00;;;17.90;34.50;;;;;;5030542;28;20975;-72